createdAt,value
2018-12-30T00:03:05.888Z,8.00
2018-12-30T00:05:34.710Z,8.07
2018-12-30T00:08:03.543Z,8.46
2018-12-30T00:10:32.113Z,7.88
2018-12-30T00:13:00.931Z,7.72
2018-12-30T00:15:30.111Z,8.19
2018-12-30T00:17:58.667Z,8.88
2018-12-30T00:20:27.238Z,8.30
2018-12-30T00:22:55.819Z,9.00
2018-12-30T00:25:24.620Z,8.00
2018-12-30T00:27:54.929Z,8.52
2018-12-30T00:30:23.507Z,8.81
2018-12-30T00:32:52.078Z,8.23
2018-12-30T00:35:20.634Z,8.27
2018-12-30T00:37:49.195Z,8.01
2018-12-30T00:40:37.247Z,7.96
2018-12-30T00:43:05.810Z,8.27
2018-12-30T00:45:37.812Z,8.25
2018-12-30T00:50:40.511Z,8.56
2018-12-30T00:53:09.112Z,8.59
2018-12-30T00:55:45.271Z,8.54
2018-12-30T00:58:13.831Z,7.96
2018-12-30T01:00:42.385Z,8.40
2018-12-30T01:03:10.947Z,8.28
2018-12-30T01:05:39.510Z,9.03
2018-12-30T01:10:42.898Z,7.93
2018-12-30T01:13:11.458Z,7.63
2018-12-30T01:15:41.778Z,8.03
2018-12-30T01:18:10.329Z,7.85
2018-12-30T01:20:58.191Z,8.22
2018-12-30T01:23:46.110Z,8.27
2018-12-30T01:26:14.707Z,8.40
2018-12-30T01:28:43.260Z,7.93
2018-12-30T01:31:11.831Z,7.91
2018-12-30T01:33:40.388Z,7.82
2018-12-30T01:36:09.143Z,8.15
2018-12-30T01:38:37.730Z,8.59
2018-12-30T01:41:06.443Z,8.57
2018-12-30T01:43:35.256Z,7.98
2018-12-30T01:46:04.265Z,8.21
2018-12-30T01:51:22.176Z,7.85
2018-12-30T01:53:50.779Z,7.75
2018-12-30T01:56:19.341Z,8.05
2018-12-30T01:58:48.192Z,8.14
2018-12-30T02:01:16.739Z,7.75
2018-12-30T02:03:45.318Z,8.48
2018-12-30T02:06:13.879Z,8.04
2018-12-30T02:08:42.462Z,7.53
2018-12-30T02:11:11.295Z,7.37
2018-12-30T02:13:39.880Z,8.12
2018-12-30T02:16:08.451Z,8.58
2018-12-30T02:18:37.033Z,8.18
2018-12-30T02:21:05.591Z,8.56
2018-12-30T02:23:34.171Z,8.30
2018-12-30T02:26:02.737Z,7.25
2018-12-30T02:28:31.525Z,8.06
2018-12-30T02:33:47.722Z,8.20
2018-12-30T02:36:16.276Z,7.45
2018-12-30T02:38:44.848Z,7.74
2018-12-30T02:41:13.398Z,7.94
2018-12-30T02:43:41.991Z,8.13
2018-12-30T02:46:10.976Z,8.08
2018-12-30T02:48:39.794Z,8.48
2018-12-30T02:51:08.345Z,8.32
2018-12-30T02:53:36.920Z,7.74
2018-12-30T02:58:53.379Z,8.25
2018-12-30T03:01:21.944Z,8.91
2018-12-30T03:03:50.512Z,7.52
2018-12-30T03:06:19.121Z,7.89
2018-12-30T03:08:47.923Z,7.83
2018-12-30T03:11:16.493Z,8.35
2018-12-30T03:13:45.065Z,8.05
2018-12-30T03:16:32.885Z,8.08
2018-12-30T03:19:01.455Z,7.72
2018-12-30T03:21:30.078Z,8.41
2018-12-30T03:23:58.637Z,8.05
2018-12-30T03:26:27.212Z,8.24
2018-12-30T03:28:55.776Z,8.52
2018-12-30T03:36:33.044Z,7.73
2018-12-30T03:39:01.611Z,8.02
2018-12-30T03:41:51.024Z,8.15
2018-12-30T03:44:19.596Z,8.62
2018-12-30T03:46:48.195Z,7.79
2018-12-30T03:49:16.753Z,7.35
2018-12-30T03:51:45.316Z,7.77
2018-12-30T03:54:13.880Z,8.08
2018-12-30T03:56:42.453Z,7.37
2018-12-30T03:59:11.025Z,8.03
2018-12-30T04:01:39.585Z,7.73
2018-12-30T04:04:08.165Z,7.75
2018-12-30T04:06:36.956Z,7.66
2018-12-30T04:09:26.007Z,7.71
2018-12-30T04:11:54.592Z,7.40
2018-12-30T04:14:23.182Z,7.87
2018-12-30T04:16:51.751Z,7.83
2018-12-30T04:19:20.316Z,8.19
2018-12-30T04:21:48.955Z,8.48
2018-12-30T04:24:17.520Z,7.92
2018-12-30T04:26:46.093Z,8.70
2018-12-30T04:29:33.896Z,8.43
2018-12-30T04:32:02.488Z,7.86
2018-12-30T04:34:31.047Z,8.17
2018-12-30T04:36:59.609Z,7.74
2018-12-30T04:39:28.176Z,7.63
2018-12-30T04:41:56.805Z,7.72
2018-12-30T04:44:25.400Z,7.92
2018-12-30T04:46:53.967Z,7.72
2018-12-30T04:49:22.569Z,7.49
2018-12-30T04:51:51.176Z,7.70
2018-12-30T04:54:19.748Z,8.42
2018-12-30T04:56:48.315Z,8.43
2018-12-30T04:59:16.896Z,8.54
2018-12-30T05:01:45.456Z,8.05
2018-12-30T05:04:14.030Z,8.13
2018-12-30T05:06:42.596Z,8.06
2018-12-30T05:09:11.190Z,7.80
2018-12-30T05:11:39.988Z,8.08
2018-12-30T05:14:08.559Z,7.65
2018-12-30T05:16:37.115Z,7.00
2018-12-30T05:19:05.940Z,7.56
2018-12-30T05:21:34.509Z,7.74
2018-12-30T05:24:03.331Z,7.80
2018-12-30T05:26:31.899Z,7.88
2018-12-30T05:29:19.766Z,8.15
2018-12-30T05:31:48.329Z,8.03
2018-12-30T05:34:16.903Z,7.50
2018-12-30T05:36:45.466Z,6.97
2018-12-30T05:39:14.079Z,7.44
2018-12-30T05:41:42.896Z,7.70
2018-12-30T05:44:11.449Z,7.70
2018-12-30T05:46:40.200Z,8.00
2018-12-30T05:49:08.756Z,7.72
2018-12-30T05:51:37.326Z,7.18
2018-12-30T05:54:05.886Z,8.19
2018-12-30T05:56:34.460Z,7.73
2018-12-30T05:59:03.018Z,7.51
2018-12-30T06:01:31.600Z,7.44
2018-12-30T06:04:00.159Z,7.98
2018-12-30T06:06:28.806Z,7.73
2018-12-30T06:08:57.392Z,7.78
2018-12-30T06:11:25.981Z,7.21
2018-12-30T06:13:54.557Z,8.15
2018-12-30T06:16:23.109Z,8.05
2018-12-30T06:18:51.704Z,8.21
2018-12-30T06:24:07.888Z,8.23
2018-12-30T06:26:36.482Z,7.25
2018-12-30T06:29:05.065Z,7.68
2018-12-30T06:31:33.639Z,7.94
2018-12-30T06:34:02.203Z,7.59
2018-12-30T06:36:30.766Z,7.76
2018-12-30T06:38:59.336Z,7.53
2018-12-30T06:41:27.915Z,7.50
2018-12-30T06:43:56.503Z,7.42
2018-12-30T06:46:25.062Z,7.92
2018-12-30T06:48:53.648Z,7.94
2018-12-30T06:51:22.222Z,8.08
2018-12-30T06:53:50.786Z,7.74
2018-12-30T06:56:19.354Z,7.59
2018-12-30T06:58:47.932Z,7.44
2018-12-30T07:01:16.491Z,8.11
2018-12-30T07:03:45.109Z,7.15
2018-12-30T07:06:13.678Z,7.46
2018-12-30T07:08:42.253Z,7.66
2018-12-30T07:11:10.979Z,7.85
2018-12-30T07:13:39.781Z,7.33
2018-12-30T07:16:08.367Z,7.94
2018-12-30T07:18:36.922Z,8.41
2018-12-30T07:21:05.517Z,7.80
2018-12-30T07:23:34.168Z,7.25
2018-12-30T07:26:02.756Z,7.77
2018-12-30T07:28:31.310Z,7.48
2018-12-30T07:31:00.116Z,7.54
2018-12-30T07:33:28.693Z,7.93
2018-12-30T07:35:57.299Z,8.02
2018-12-30T07:38:25.904Z,7.57
2018-12-30T07:40:54.466Z,7.29
2018-12-30T07:43:23.044Z,7.59
2018-12-30T07:45:51.660Z,7.17
2018-12-30T07:48:20.258Z,7.78
2018-12-30T07:50:48.815Z,8.18
2018-12-30T07:53:17.606Z,7.75
2018-12-30T07:55:46.163Z,7.37
2018-12-30T07:58:14.730Z,7.92
2018-12-30T08:00:43.383Z,7.92
2018-12-30T08:03:11.958Z,7.79
2018-12-30T08:05:40.558Z,7.70
2018-12-30T08:08:09.123Z,8.29
2018-12-30T08:10:37.790Z,8.10
2018-12-30T08:13:06.368Z,8.08
2018-12-30T08:15:54.203Z,7.11
2018-12-30T08:18:22.773Z,7.58
2018-12-30T08:20:51.364Z,7.56
2018-12-30T08:23:21.742Z,7.44
2018-12-30T08:25:50.269Z,8.06
2018-12-30T08:28:25.071Z,8.17
2018-12-30T08:30:49.143Z,7.75
2018-12-30T08:33:17.730Z,7.83
2018-12-30T08:35:46.295Z,7.44
2018-12-30T08:38:14.861Z,7.61
2018-12-30T08:40:43.436Z,7.87
2018-12-30T08:43:12.042Z,7.56
2018-12-30T08:45:40.607Z,7.48
2018-12-30T08:48:09.324Z,7.60
2018-12-30T08:50:37.890Z,7.80
2018-12-30T08:53:06.467Z,7.98
2018-12-30T08:55:35.329Z,8.38
2018-12-30T08:58:04.256Z,7.35
2018-12-30T09:00:32.928Z,8.10
2018-12-30T09:03:01.522Z,7.78
2018-12-30T09:05:30.147Z,8.42
2018-12-30T09:07:58.735Z,7.73
2018-12-30T09:10:27.350Z,7.97
2018-12-30T09:12:57.959Z,8.32
2018-12-30T09:15:26.515Z,7.90
2018-12-30T09:17:55.136Z,8.06
2018-12-30T09:20:23.711Z,7.90
2018-12-30T09:22:52.299Z,7.91
2018-12-30T09:25:40.116Z,8.29
2018-12-30T09:28:08.708Z,8.03
2018-12-30T09:30:37.291Z,8.45
2018-12-30T09:33:05.885Z,8.61
2018-12-30T09:35:34.668Z,8.50
2018-12-30T09:38:03.242Z,8.39
2018-12-30T09:40:31.846Z,8.39
2018-12-30T09:43:00.451Z,8.00
2018-12-30T09:45:29.143Z,8.97
2018-12-30T09:47:57.743Z,8.47
2018-12-30T09:50:45.553Z,8.54
2018-12-30T09:53:14.129Z,8.28
2018-12-30T09:55:45.650Z,8.69
2018-12-30T09:58:14.247Z,8.43
2018-12-30T10:00:42.882Z,8.48
2018-12-30T10:03:11.511Z,8.15
2018-12-30T10:05:40.095Z,8.93
2018-12-30T10:08:08.705Z,8.60
2018-12-30T10:10:37.514Z,8.82
2018-12-30T10:13:06.464Z,8.54
2018-12-30T10:15:35.157Z,8.98
2018-12-30T10:18:03.795Z,8.42
2018-12-30T10:20:32.412Z,8.78
2018-12-30T10:23:00.973Z,8.56
2018-12-30T10:25:29.845Z,8.34
2018-12-30T10:27:58.407Z,9.16
2018-12-30T10:30:27.207Z,9.20
2018-12-30T10:32:56.088Z,9.70
2018-12-30T10:35:24.662Z,9.47
2018-12-30T10:37:53.263Z,9.69
2018-12-30T10:40:21.831Z,9.40
2018-12-30T10:42:50.387Z,9.84
2018-12-30T10:45:18.947Z,9.77
2018-12-30T10:47:47.530Z,9.21
2018-12-30T10:50:16.091Z,9.96
2018-12-30T10:52:44.660Z,9.75
2018-12-30T10:55:13.463Z,9.33
2018-12-30T10:57:42.048Z,9.78
2018-12-30T11:02:46.254Z,9.95
2018-12-30T11:05:14.898Z,9.27
2018-12-30T11:07:43.490Z,9.80
2018-12-30T11:10:12.155Z,9.46
2018-12-30T11:12:40.834Z,9.77
2018-12-30T11:15:09.711Z,9.07
2018-12-30T11:17:38.500Z,9.49
2018-12-30T11:20:07.408Z,9.23
2018-12-30T11:22:36.071Z,9.21
2018-12-30T11:25:05.170Z,9.58
2018-12-30T11:27:34.212Z,9.94
2018-12-30T11:30:03.170Z,9.94
2018-12-30T11:32:32.537Z,10.37
2018-12-30T11:35:01.601Z,9.47
2018-12-30T11:37:30.526Z,9.22
2018-12-30T11:39:59.492Z,9.46
2018-12-30T11:42:28.296Z,9.55
2018-12-30T11:44:56.860Z,9.22
2018-12-30T11:47:25.472Z,9.84
2018-12-30T11:49:54.083Z,9.37
2018-12-30T11:52:23.027Z,9.18
2018-12-30T11:54:51.720Z,9.17
2018-12-30T11:57:20.307Z,9.20
2018-12-30T11:59:49.151Z,9.28
2018-12-30T12:04:51.644Z,9.71
2018-12-30T12:07:20.216Z,9.94
2018-12-30T12:09:48.794Z,10.02
2018-12-30T12:12:17.499Z,10.17
2018-12-30T12:14:46.312Z,9.98
2018-12-30T12:17:14.967Z,10.27
2018-12-30T12:19:43.593Z,9.31
2018-12-30T12:22:12.186Z,9.21
2018-12-30T12:24:41.033Z,9.15
2018-12-30T12:27:09.676Z,9.41
2018-12-30T12:29:38.289Z,9.69
2018-12-30T12:32:07.856Z,9.24
2018-12-30T12:34:36.497Z,9.07
2018-12-30T12:37:05.066Z,9.31
2018-12-30T12:39:33.642Z,9.47
2018-12-30T12:42:02.208Z,9.25
2018-12-30T12:44:30.791Z,8.74
2018-12-30T12:46:59.382Z,8.80
2018-12-30T12:49:28.054Z,9.42
2018-12-30T12:54:44.363Z,9.49
2018-12-30T12:57:13.608Z,8.41
2018-12-30T12:59:42.834Z,9.43
2018-12-30T13:02:12.130Z,9.34
2018-12-30T13:04:41.452Z,9.25
2018-12-30T13:07:10.617Z,9.23
2018-12-30T13:09:41.069Z,9.52
2018-12-30T13:12:10.355Z,9.54
2018-12-30T13:14:39.421Z,9.13
2018-12-30T13:17:08.700Z,9.66
2018-12-30T13:19:37.866Z,9.67
2018-12-30T13:22:06.460Z,9.91
2018-12-30T13:24:39.969Z,9.26
2018-12-30T13:29:39.892Z,8.87
2018-12-30T13:32:08.517Z,9.61
2018-12-30T13:34:37.114Z,9.08
2018-12-30T13:37:25.146Z,9.56
2018-12-30T13:39:53.762Z,9.31
2018-12-30T13:42:22.443Z,9.91
2018-12-30T13:44:51.026Z,9.07
2018-12-30T13:47:19.607Z,9.19
2018-12-30T13:49:48.208Z,8.44
2018-12-30T13:55:04.936Z,9.08
2018-12-30T13:57:33.570Z,9.30
2018-12-30T14:02:36.967Z,9.18
2018-12-30T14:05:05.989Z,9.19
2018-12-30T14:07:34.552Z,8.71
2018-12-30T14:10:03.146Z,9.34
2018-12-30T14:12:31.736Z,8.62
2018-12-30T14:15:00.354Z,8.88
2018-12-30T14:17:28.907Z,9.25
2018-12-30T14:19:57.522Z,8.88
2018-12-30T14:22:26.092Z,8.67
2018-12-30T14:24:55.478Z,8.84
2018-12-30T14:27:24.289Z,8.22
2018-12-30T14:29:53.063Z,9.41
2018-12-30T14:32:21.871Z,9.36
2018-12-30T14:34:51.432Z,10.11
2018-12-30T14:37:19.990Z,9.40
2018-12-30T14:39:49.562Z,8.63
2018-12-30T14:42:18.148Z,9.13
2018-12-30T14:44:46.745Z,8.91
2018-12-30T14:47:15.337Z,9.39
2018-12-30T14:49:43.936Z,9.60
2018-12-30T14:52:13.238Z,9.28
2018-12-30T14:54:41.932Z,9.00
2018-12-30T14:57:10.523Z,9.06
2018-12-30T14:59:39.090Z,9.37
2018-12-30T15:02:07.675Z,9.42
2018-12-30T15:04:36.277Z,8.81
2018-12-30T15:07:04.971Z,9.30
2018-12-30T15:09:35.809Z,9.00
2018-12-30T15:12:03.872Z,8.89
2018-12-30T15:14:32.475Z,9.09
2018-12-30T15:17:01.039Z,8.67
2018-12-30T15:19:29.720Z,8.82
2018-12-30T15:21:58.316Z,9.31
2018-12-30T15:24:27.158Z,9.95
2018-12-30T15:26:55.750Z,8.90
2018-12-30T15:29:24.571Z,8.87
2018-12-30T15:31:53.406Z,9.71
2018-12-30T15:34:22.005Z,8.73
2018-12-30T15:36:50.684Z,9.44
2018-12-30T15:39:19.199Z,9.34
2018-12-30T15:41:47.792Z,9.42
2018-12-30T15:44:16.381Z,8.71
2018-12-30T15:46:45.085Z,9.15
2018-12-30T15:49:13.664Z,9.03
2018-12-30T15:51:42.277Z,9.23
2018-12-30T15:54:11.851Z,9.84
2018-12-30T15:56:40.445Z,9.30
2018-12-30T15:59:09.022Z,8.83
2018-12-30T16:01:37.605Z,9.17
2018-12-30T16:04:06.194Z,8.97
2018-12-30T16:06:34.778Z,8.89
2018-12-30T16:09:04.833Z,9.68
2018-12-30T16:11:33.668Z,9.67
2018-12-30T16:14:02.249Z,9.25
2018-12-30T16:16:30.870Z,9.44
2018-12-30T16:18:59.455Z,9.03
2018-12-30T16:21:28.058Z,9.33
2018-12-30T16:23:56.680Z,9.39
2018-12-30T16:26:25.347Z,9.46
2018-12-30T16:28:53.919Z,9.79
2018-12-30T16:31:27.991Z,9.52
2018-12-30T16:33:52.850Z,9.39
2018-12-30T16:36:21.446Z,9.69
2018-12-30T16:38:50.027Z,9.74
2018-12-30T16:41:18.605Z,9.34
2018-12-30T16:43:47.264Z,9.52
2018-12-30T16:46:15.861Z,10.55
2018-12-30T16:48:44.465Z,10.41
2018-12-30T16:51:13.040Z,9.28
2018-12-30T16:53:41.611Z,10.29
2018-12-30T16:56:10.420Z,9.75
2018-12-30T16:58:39.299Z,9.83
2018-12-30T17:01:07.882Z,9.60
2018-12-30T17:03:36.484Z,10.11
2018-12-30T17:06:05.082Z,9.88
2018-12-30T17:08:33.665Z,10.18
2018-12-30T17:11:02.256Z,9.81
2018-12-30T17:13:30.927Z,10.21
2018-12-30T17:15:59.501Z,8.64
2018-12-30T17:18:28.089Z,9.19
2018-12-30T17:20:56.689Z,9.47
2018-12-30T17:23:25.408Z,9.76
2018-12-30T17:25:54.011Z,10.29
2018-12-30T17:28:22.608Z,9.42
2018-12-30T17:30:51.203Z,9.13
2018-12-30T17:33:19.784Z,9.65
2018-12-30T17:35:48.350Z,9.95
2018-12-30T17:38:17.181Z,9.18
2018-12-30T17:40:45.752Z,9.50
2018-12-30T17:43:14.313Z,9.16
2018-12-30T17:45:42.938Z,9.35
2018-12-30T17:48:11.526Z,9.79
2018-12-30T17:50:40.093Z,9.99
2018-12-30T17:53:08.737Z,9.76
2018-12-30T17:55:37.341Z,9.82
2018-12-30T17:58:05.905Z,9.98
2018-12-30T18:00:34.506Z,9.79
2018-12-30T18:03:03.095Z,10.15
2018-12-30T18:05:31.699Z,9.68
2018-12-30T18:08:00.275Z,9.47
2018-12-30T18:10:29.146Z,9.65
2018-12-30T18:12:58.193Z,9.17
2018-12-30T18:15:26.974Z,9.86
2018-12-30T18:17:55.705Z,10.05
2018-12-30T18:20:24.269Z,9.76
2018-12-30T18:22:52.837Z,9.67
2018-12-30T18:25:21.435Z,10.02
2018-12-30T18:27:50.099Z,9.98
2018-12-30T18:30:18.660Z,10.11
2018-12-30T18:32:47.260Z,9.46
2018-12-30T18:35:15.850Z,9.52
2018-12-30T18:37:44.643Z,10.09
2018-12-30T18:40:13.234Z,10.16
2018-12-30T18:42:41.898Z,10.17
2018-12-30T18:45:10.459Z,8.94
2018-12-30T18:47:39.055Z,9.30
2018-12-30T18:50:08.476Z,9.23
2018-12-30T18:52:37.273Z,9.88
2018-12-30T18:55:06.429Z,10.46
2018-12-30T18:57:34.985Z,9.73
2018-12-30T19:00:03.582Z,9.50
2018-12-30T19:02:32.144Z,9.80
2018-12-30T19:05:00.704Z,10.06
2018-12-30T19:07:29.367Z,10.53
2018-12-30T19:09:57.933Z,10.53
2018-12-30T19:12:26.527Z,10.11
2018-12-30T19:14:55.103Z,10.19
2018-12-30T19:17:23.907Z,9.36
2018-12-30T19:19:52.489Z,10.07
2018-12-30T19:22:21.063Z,10.14
2018-12-30T19:24:49.649Z,9.97
2018-12-30T19:27:18.232Z,9.90
2018-12-30T19:29:46.799Z,9.79
2018-12-30T19:32:15.368Z,10.24
2018-12-30T19:34:43.953Z,10.49
2018-12-30T19:37:12.545Z,10.27
2018-12-30T19:39:41.124Z,9.95
2018-12-30T19:42:09.890Z,9.72
2018-12-30T19:44:38.710Z,10.07
2018-12-30T19:47:07.511Z,10.60
2018-12-30T19:49:36.109Z,10.50
2018-12-30T19:52:04.682Z,9.83
2018-12-30T19:54:33.523Z,10.14
2018-12-30T19:57:02.082Z,9.76
2018-12-30T19:59:30.776Z,10.20
2018-12-30T20:01:59.332Z,10.09
2018-12-30T20:04:27.931Z,10.43
2018-12-30T20:06:56.495Z,9.88
2018-12-30T20:09:25.746Z,10.28
2018-12-30T20:11:54.567Z,10.20
2018-12-30T20:14:23.124Z,9.83
2018-12-30T20:16:51.688Z,9.31
2018-12-30T20:19:20.261Z,9.85
2018-12-30T20:21:48.848Z,10.23
2018-12-30T20:24:17.416Z,9.63
2018-12-30T20:26:45.985Z,9.76
2018-12-30T20:29:14.545Z,10.06
2018-12-30T20:31:43.136Z,10.04
2018-12-30T20:34:11.702Z,10.40
2018-12-30T20:39:08.316Z,9.74
2018-12-30T20:41:36.885Z,10.33
2018-12-30T20:44:05.455Z,9.85
2018-12-30T20:46:34.022Z,9.99
2018-12-30T20:49:02.832Z,10.01
2018-12-30T20:51:31.394Z,9.74
2018-12-30T20:53:59.997Z,9.61
2018-12-30T20:56:28.641Z,9.60
2018-12-30T20:58:57.208Z,10.06
2018-12-30T21:01:25.809Z,10.30
2018-12-30T21:03:54.382Z,9.75
2018-12-30T21:06:22.971Z,9.71
2018-12-30T21:08:51.539Z,9.65
2018-12-30T21:11:20.106Z,9.51
2018-12-30T21:13:48.700Z,9.65
2018-12-30T21:16:17.289Z,9.61
2018-12-30T21:18:45.873Z,9.48
2018-12-30T21:21:14.455Z,9.53
2018-12-30T21:23:43.046Z,9.13
2018-12-30T21:26:11.617Z,9.64
2018-12-30T21:28:40.186Z,9.56
2018-12-30T21:31:08.795Z,8.81
2018-12-30T21:33:37.379Z,8.96
2018-12-30T21:36:05.951Z,9.49
2018-12-30T21:38:34.523Z,9.76
2018-12-30T21:41:03.081Z,9.73
2018-12-30T21:43:31.643Z,9.58
2018-12-30T21:46:00.217Z,9.97
2018-12-30T21:48:28.819Z,9.95
2018-12-30T21:50:57.414Z,9.61
2018-12-30T21:53:25.975Z,9.63
2018-12-30T21:55:54.552Z,10.07
2018-12-30T21:58:23.171Z,9.75
2018-12-30T22:00:51.732Z,10.28
2018-12-30T22:03:20.351Z,10.41
2018-12-30T22:05:48.914Z,10.23
2018-12-30T22:08:17.481Z,10.31
2018-12-30T22:10:46.265Z,9.77
2018-12-30T22:13:14.839Z,10.72
2018-12-30T22:15:43.396Z,10.45
2018-12-30T22:18:11.979Z,10.09
2018-12-30T22:20:40.558Z,10.51
2018-12-30T22:23:09.153Z,10.36
2018-12-30T22:25:37.727Z,10.34
2018-12-30T22:28:06.316Z,10.45
2018-12-30T22:30:34.900Z,10.27
2018-12-30T22:33:03.497Z,10.75
2018-12-30T22:35:33.065Z,10.45
2018-12-30T22:38:01.643Z,10.13
2018-12-30T22:40:30.256Z,9.97
2018-12-30T22:42:59.086Z,10.33
2018-12-30T22:45:27.717Z,10.47
2018-12-30T22:47:56.284Z,10.81
2018-12-30T22:50:25.089Z,10.51
2018-12-30T22:52:53.916Z,10.42
2018-12-30T22:55:22.510Z,10.64
2018-12-30T22:57:51.332Z,10.51
2018-12-30T23:00:37.958Z,10.54
2018-12-30T23:03:06.551Z,10.73
2018-12-30T23:05:35.110Z,10.78
2018-12-30T23:08:03.703Z,10.19
2018-12-30T23:10:32.269Z,10.44
2018-12-30T23:13:01.092Z,10.35
2018-12-30T23:15:29.709Z,10.87
2018-12-30T23:17:58.290Z,11.11
2018-12-30T23:20:26.970Z,10.12
2018-12-30T23:22:55.539Z,10.34
2018-12-30T23:25:24.105Z,10.57
2018-12-30T23:27:52.667Z,10.07
2018-12-30T23:30:21.239Z,10.49
2018-12-30T23:32:49.798Z,9.40
2018-12-30T23:35:18.382Z,9.43
2018-12-30T23:37:46.935Z,9.57
2018-12-30T23:40:15.527Z,9.21
2018-12-30T23:42:44.094Z,10.30
2018-12-30T23:45:12.703Z,9.57
2018-12-30T23:47:41.299Z,10.35
2018-12-30T23:50:09.884Z,10.31
2018-12-30T23:52:38.475Z,10.11
2018-12-30T23:55:07.051Z,9.98
2018-12-30T23:57:35.692Z,9.75
